createdAt,value
2023-02-28T00:00:12.463Z,32.35
2023-02-28T00:02:39.144Z,15.07
2023-02-28T00:05:06.250Z,30.60
2023-02-28T00:07:35.577Z,11.52
2023-02-28T00:10:02.135Z,17.55
2023-02-28T00:12:28.702Z,11.18
2023-02-28T00:14:55.152Z,8.73
2023-02-28T00:17:22.888Z,11.82
2023-02-28T00:19:49.625Z,14.90
2023-02-28T00:22:17.142Z,11.00
2023-02-28T00:24:43.655Z,13.05
2023-02-28T00:27:10.965Z,11.55
2023-02-28T00:29:37.585Z,5.50
2023-02-28T00:32:04.671Z,9.98
2023-02-28T00:34:31.159Z,8.68
2023-02-28T00:36:57.947Z,6.50
2023-02-28T00:39:24.421Z,10.68
2023-02-28T00:41:50.950Z,8.40
2023-02-28T00:44:22.437Z,6.57
2023-02-28T00:46:49.045Z,8.43
2023-02-28T00:49:17.683Z,8.10
2023-02-28T00:51:47.002Z,13.63
2023-02-28T00:54:13.679Z,15.68
2023-02-28T00:56:42.628Z,8.82
2023-02-28T00:59:09.121Z,8.77
2023-02-28T01:01:35.798Z,8.50
2023-02-28T01:04:02.382Z,8.60
2023-02-28T01:06:31.367Z,9.20
2023-02-28T01:08:57.778Z,9.27
2023-02-28T01:11:24.299Z,7.60
2023-02-28T01:13:50.744Z,8.43
2023-02-28T01:16:17.336Z,9.18
2023-02-28T01:18:43.910Z,6.28
2023-02-28T01:21:15.005Z,7.32
2023-02-28T01:23:41.844Z,8.07
2023-02-28T01:26:09.708Z,8.65
2023-02-28T01:28:36.147Z,7.60
2023-02-28T01:31:02.704Z,7.60
2023-02-28T01:33:29.730Z,7.70
2023-02-28T01:36:00.274Z,8.80
2023-02-28T01:38:27.265Z,9.35
2023-02-28T01:40:54.351Z,10.63
2023-02-28T01:43:30.230Z,9.82
2023-02-28T01:45:58.007Z,10.68
2023-02-28T01:48:30.058Z,9.48
2023-02-28T01:50:58.286Z,9.68
2023-02-28T01:53:28.656Z,9.68
2023-02-28T01:55:55.328Z,7.95
2023-02-28T01:58:21.944Z,10.10
2023-02-28T02:00:48.928Z,9.55
2023-02-28T02:03:19.962Z,10.50
2023-02-28T02:05:52.387Z,10.10
2023-02-28T02:08:21.145Z,10.68
2023-02-28T02:10:54.915Z,11.52
2023-02-28T02:13:24.291Z,12.77
2023-02-28T02:16:14.207Z,11.60
2023-02-28T02:18:43.746Z,9.50
2023-02-28T02:21:31.494Z,11.35
2023-02-28T02:23:58.117Z,12.05
2023-02-28T02:26:39.864Z,14.52
2023-02-28T02:29:09.402Z,13.93
2023-02-28T02:31:54.288Z,14.68
2023-02-28T02:34:35.139Z,13.23
2023-02-28T02:37:20.423Z,16.20
2023-02-28T02:40:09.973Z,17.27
2023-02-28T02:42:49.127Z,16.05
2023-02-28T02:45:26.961Z,14.13
2023-02-28T02:47:54.568Z,14.80
2023-02-28T02:50:24.982Z,14.38
2023-02-28T02:52:56.817Z,15.00
2023-02-28T02:55:24.092Z,16.00
2023-02-28T02:57:53.146Z,15.52
2023-02-28T03:00:22.627Z,15.77
2023-02-28T03:02:50.268Z,14.90
2023-02-28T03:05:26.433Z,16.95
2023-02-28T03:07:55.112Z,18.58
2023-02-28T03:10:29.617Z,20.60
2023-02-28T03:13:01.621Z,15.63
2023-02-28T03:15:32.063Z,18.45
2023-02-28T03:18:11.383Z,17.98
2023-02-28T03:20:37.930Z,16.60
2023-02-28T03:23:09.812Z,15.90
2023-02-28T03:25:42.196Z,17.40
2023-02-28T03:28:28.192Z,17.05
2023-02-28T03:30:54.873Z,15.30
2023-02-28T03:33:24.883Z,17.30
2023-02-28T03:36:13.799Z,16.88
2023-02-28T03:38:49.793Z,18.00
2023-02-28T03:41:16.349Z,16.73
2023-02-28T03:43:45.834Z,20.10
2023-02-28T03:46:13.806Z,18.33
2023-02-28T03:48:52.161Z,16.95
2023-02-28T03:51:23.842Z,21.45
2023-02-28T03:53:59.103Z,17.55
2023-02-28T03:56:51.089Z,22.35
2023-02-28T03:59:20.315Z,17.05
2023-02-28T04:01:48.521Z,21.00
2023-02-28T04:04:18.249Z,17.15
2023-02-28T04:06:45.572Z,20.52
2023-02-28T04:11:43.349Z,18.15
2023-02-28T04:14:10.752Z,18.95
2023-02-28T04:16:38.857Z,18.83
2023-02-28T04:19:06.301Z,21.38
2023-02-28T04:21:34.250Z,18.92
2023-02-28T04:24:01.751Z,18.55
2023-02-28T04:26:35.129Z,18.63
2023-02-28T04:29:02.353Z,20.77
2023-02-28T04:31:29.287Z,18.67
2023-02-28T04:33:56.121Z,18.92
2023-02-28T04:36:24.176Z,19.95
2023-02-28T04:38:50.785Z,19.83
2023-02-28T04:41:19.787Z,19.27
2023-02-28T04:43:46.288Z,24.48
2023-02-28T04:46:13.121Z,20.83
2023-02-28T04:48:39.973Z,19.90
2023-02-28T04:51:11.223Z,18.88
2023-02-28T04:53:40.882Z,23.48
2023-02-28T04:56:07.997Z,19.42
2023-02-28T04:58:34.796Z,19.23
2023-02-28T05:01:05.742Z,24.08
2023-02-28T05:03:34.811Z,23.25
2023-02-28T05:06:01.231Z,20.05
2023-02-28T05:08:30.674Z,21.80
2023-02-28T05:10:57.150Z,19.45
2023-02-28T05:13:24.007Z,21.08
2023-02-28T05:15:50.509Z,21.05
2023-02-28T05:18:17.018Z,24.20
2023-02-28T05:20:43.453Z,23.85
2023-02-28T05:23:12.192Z,21.05
2023-02-28T05:25:38.651Z,25.23
2023-02-28T05:28:05.396Z,23.30
2023-02-28T05:30:32.650Z,23.17
2023-02-28T05:32:59.639Z,19.27
2023-02-28T05:35:26.873Z,22.30
2023-02-28T05:37:53.652Z,24.65
2023-02-28T05:40:22.974Z,21.15
2023-02-28T05:42:51.228Z,20.13
2023-02-28T05:45:19.854Z,21.30
2023-02-28T05:47:46.489Z,20.10
2023-02-28T05:50:13.037Z,21.13
2023-02-28T05:52:39.479Z,31.77
2023-02-28T05:55:06.477Z,19.75
2023-02-28T05:57:33.056Z,21.02
2023-02-28T05:59:59.532Z,24.38
2023-02-28T06:02:26.152Z,18.80
2023-02-28T06:04:52.668Z,20.20
2023-02-28T06:07:19.185Z,25.33
2023-02-28T06:09:45.699Z,24.05
2023-02-28T06:12:12.180Z,23.58
2023-02-28T06:14:38.743Z,21.02
2023-02-28T06:17:05.396Z,20.80
2023-02-28T06:19:32.238Z,18.55
2023-02-28T06:21:59.380Z,27.95
2023-02-28T06:24:29.100Z,21.50
2023-02-28T06:26:55.674Z,25.13
2023-02-28T06:29:22.251Z,23.25
2023-02-28T06:31:49.111Z,21.73
2023-02-28T06:34:15.836Z,20.27
2023-02-28T06:36:42.836Z,20.02
2023-02-28T06:39:09.943Z,25.88
2023-02-28T06:41:54.235Z,19.05
2023-02-28T06:44:25.078Z,20.90
2023-02-28T06:46:51.646Z,23.05
2023-02-28T06:49:18.589Z,19.50
2023-02-28T06:51:48.449Z,17.45
2023-02-28T06:54:14.986Z,20.48
2023-02-28T06:56:41.483Z,19.00
2023-02-28T06:59:08.026Z,22.10
2023-02-28T07:01:34.794Z,16.60
2023-02-28T07:04:01.665Z,14.95
2023-02-28T07:06:29.150Z,15.10
2023-02-28T07:08:55.747Z,14.55
2023-02-28T07:11:26.793Z,14.15
2023-02-28T07:13:54.273Z,13.43
2023-02-28T07:16:20.940Z,14.48
2023-02-28T07:18:47.706Z,13.10
2023-02-28T07:21:14.532Z,13.20
2023-02-28T07:23:41.789Z,13.15
2023-02-28T07:26:12.480Z,15.18
2023-02-28T07:28:39.269Z,12.23
2023-02-28T07:31:06.437Z,16.05
2023-02-28T07:33:33.053Z,14.35
2023-02-28T07:36:06.670Z,14.65
2023-02-28T07:38:36.827Z,16.92
2023-02-28T07:41:06.519Z,14.20
2023-02-28T07:43:33.730Z,15.43
2023-02-28T07:46:04.563Z,15.63
2023-02-28T07:48:31.136Z,15.75
2023-02-28T07:50:58.074Z,16.35
2023-02-28T07:53:24.591Z,22.63
2023-02-28T07:55:51.033Z,17.38
2023-02-28T07:58:17.492Z,19.73
2023-02-28T08:00:44.070Z,14.10
2023-02-28T08:03:14.064Z,16.90
2023-02-28T08:05:41.226Z,15.93
2023-02-28T08:08:08.298Z,16.77
2023-02-28T08:10:38.145Z,15.20
2023-02-28T08:13:04.670Z,19.35
2023-02-28T08:15:31.108Z,17.67
2023-02-28T08:17:57.689Z,18.08
2023-02-28T08:20:24.708Z,17.42
2023-02-28T08:22:51.239Z,18.00
2023-02-28T08:25:20.620Z,17.10
2023-02-28T08:27:47.104Z,17.77
2023-02-28T08:30:14.469Z,20.48
2023-02-28T08:32:41.681Z,16.75
2023-02-28T08:35:10.152Z,22.38
2023-02-28T08:37:36.966Z,17.08
2023-02-28T08:40:05.209Z,16.60
2023-02-28T08:42:32.838Z,23.30
2023-02-28T08:44:59.296Z,18.52
2023-02-28T08:47:25.827Z,17.92
2023-02-28T08:49:54.935Z,15.98
2023-02-28T08:52:21.464Z,17.38
2023-02-28T08:54:47.910Z,18.10
2023-02-28T08:57:14.614Z,19.52
2023-02-28T08:59:41.151Z,18.83
2023-02-28T09:02:09.619Z,20.77
2023-02-28T09:04:36.115Z,16.85
2023-02-28T09:07:02.583Z,22.60
2023-02-28T09:09:29.058Z,17.25
2023-02-28T09:11:56.841Z,17.83
2023-02-28T09:14:23.366Z,16.95
2023-02-28T09:16:50.179Z,15.93
2023-02-28T09:19:19.008Z,19.13
2023-02-28T09:21:45.471Z,15.07
2023-02-28T09:24:14.584Z,14.93
2023-02-28T09:26:47.292Z,15.90
2023-02-28T09:29:22.254Z,16.98
2023-02-28T09:31:48.784Z,19.13
2023-02-28T09:34:18.546Z,16.27
2023-02-28T09:36:46.438Z,14.85
2023-02-28T09:39:15.433Z,15.13
2023-02-28T09:41:51.567Z,15.57
2023-02-28T09:44:30.041Z,13.93
2023-02-28T09:47:06.632Z,16.13
2023-02-28T09:49:38.147Z,16.30
2023-02-28T09:52:04.644Z,15.30
2023-02-28T09:54:32.811Z,13.45
2023-02-28T09:57:06.796Z,17.13
2023-02-28T09:59:39.446Z,14.63
2023-02-28T10:02:24.196Z,15.50
2023-02-28T10:05:02.708Z,15.90
2023-02-28T10:07:41.458Z,15.32
2023-02-28T10:10:16.325Z,16.27
2023-02-28T10:12:46.607Z,16.58
2023-02-28T10:15:17.129Z,15.15
2023-02-28T10:17:55.676Z,16.67
2023-02-28T10:20:34.879Z,16.90
2023-02-28T10:23:20.270Z,16.02
2023-02-28T10:25:51.110Z,14.68
2023-02-28T10:28:18.998Z,16.60
2023-02-28T10:30:49.709Z,13.20
2023-02-28T10:33:20.176Z,16.35
2023-02-28T10:35:46.757Z,15.80
2023-02-28T10:38:24.353Z,14.65
2023-02-28T10:40:51.561Z,16.13
2023-02-28T10:43:18.005Z,14.73
2023-02-28T10:45:58.677Z,14.38
2023-02-28T10:48:33.838Z,16.83
2023-02-28T10:51:00.672Z,14.55
2023-02-28T10:54:00.050Z,13.82
2023-02-28T10:56:27.383Z,14.60
2023-02-28T10:59:04.576Z,15.55
2023-02-28T11:01:31.431Z,18.23
2023-02-28T11:03:58.438Z,12.98
2023-02-28T11:06:31.650Z,15.73
2023-02-28T11:09:07.862Z,15.43
2023-02-28T11:11:43.232Z,15.13
2023-02-28T11:14:19.607Z,16.23
2023-02-28T11:16:46.160Z,17.33
2023-02-28T11:19:18.775Z,17.77
2023-02-28T11:21:49.251Z,15.68
2023-02-28T11:24:15.772Z,17.75
2023-02-28T11:26:44.346Z,15.55
2023-02-28T11:29:18.433Z,16.05
2023-02-28T11:31:44.956Z,14.75
2023-02-28T11:34:28.502Z,17.48
2023-02-28T11:36:59.184Z,13.30
2023-02-28T11:39:26.384Z,15.57
2023-02-28T11:41:59.063Z,15.15
2023-02-28T11:44:44.480Z,14.98
2023-02-28T11:47:20.226Z,16.27
2023-02-28T11:49:49.453Z,16.30
2023-02-28T11:52:22.221Z,17.77
2023-02-28T11:54:59.618Z,13.47
2023-02-28T11:57:36.753Z,17.08
2023-02-28T12:00:12.311Z,14.43
2023-02-28T12:02:41.872Z,15.82
2023-02-28T12:05:20.330Z,16.00
2023-02-28T12:07:51.914Z,18.35
2023-02-28T12:10:18.334Z,13.02
2023-02-28T12:12:49.034Z,14.75
2023-02-28T12:15:26.476Z,16.25
2023-02-28T12:17:53.369Z,15.05
2023-02-28T12:20:32.127Z,14.68
2023-02-28T12:22:58.743Z,14.50
2023-02-28T12:25:45.789Z,16.35
2023-02-28T12:28:13.244Z,14.20
2023-02-28T12:30:42.258Z,14.63
2023-02-28T12:33:10.318Z,13.13
2023-02-28T12:35:44.407Z,14.95
2023-02-28T12:38:18.739Z,15.43
2023-02-28T12:40:51.711Z,15.73
2023-02-28T12:43:19.307Z,15.15
2023-02-28T12:45:49.643Z,14.07
2023-02-28T12:48:20.938Z,15.35
2023-02-28T12:50:48.446Z,13.98
2023-02-28T12:53:27.721Z,12.82
2023-02-28T12:55:57.408Z,14.18
2023-02-28T12:58:29.807Z,16.15
2023-02-28T13:00:59.371Z,14.48
2023-02-28T13:03:49.270Z,16.05
2023-02-28T13:06:24.861Z,13.23
2023-02-28T13:09:04.486Z,14.77
2023-02-28T13:11:33.421Z,14.38
2023-02-28T13:14:01.624Z,15.82
2023-02-28T13:16:28.240Z,14.27
2023-02-28T13:19:09.468Z,13.23
2023-02-28T13:21:43.178Z,13.43
2023-02-28T13:26:39.321Z,14.70
2023-02-28T13:29:11.905Z,15.30
2023-02-28T13:32:00.085Z,16.52
2023-02-28T13:34:26.960Z,15.00
2023-02-28T13:37:13.438Z,13.85
2023-02-28T13:39:39.895Z,13.82
2023-02-28T13:42:28.274Z,15.20
2023-02-28T13:45:04.017Z,22.42
2023-02-28T13:47:31.588Z,16.27
2023-02-28T13:50:17.779Z,14.45
2023-02-28T13:53:03.206Z,15.55
2023-02-28T13:55:38.469Z,13.60
2023-02-28T13:58:13.771Z,12.18
2023-02-28T14:00:46.830Z,14.70
2023-02-28T14:03:29.413Z,13.73
2023-02-28T14:06:14.871Z,13.77
2023-02-28T14:08:49.348Z,13.77
2023-02-28T14:11:25.683Z,14.35
2023-02-28T14:13:52.469Z,14.50
2023-02-28T14:16:22.185Z,15.98
2023-02-28T14:19:00.013Z,15.75
2023-02-28T14:21:29.878Z,14.15
2023-02-28T14:23:56.811Z,15.95
2023-02-28T14:26:23.244Z,13.65
2023-02-28T14:29:02.740Z,15.88
2023-02-28T14:31:30.882Z,15.38
2023-02-28T14:34:06.571Z,15.00
2023-02-28T14:36:33.067Z,13.82
2023-02-28T14:39:02.314Z,16.05
2023-02-28T14:41:31.853Z,15.20
2023-02-28T14:44:01.259Z,12.27
2023-02-28T14:46:38.707Z,13.98
2023-02-28T14:49:13.363Z,14.52
2023-02-28T14:51:39.915Z,14.63
2023-02-28T14:54:08.794Z,13.55
2023-02-28T14:56:37.282Z,15.10
2023-02-28T14:59:04.249Z,15.05
2023-02-28T15:01:32.277Z,16.33
2023-02-28T15:04:02.437Z,14.00
2023-02-28T15:06:31.850Z,15.07
2023-02-28T15:09:30.812Z,14.85
2023-02-28T15:11:57.291Z,14.75
2023-02-28T15:14:23.883Z,13.30
2023-02-28T15:16:56.518Z,16.52
2023-02-28T15:19:29.532Z,15.93
2023-02-28T15:21:59.852Z,17.23
2023-02-28T15:24:31.342Z,15.30
2023-02-28T15:27:00.929Z,16.88
2023-02-28T15:29:28.589Z,15.23
2023-02-28T15:32:01.465Z,19.02
2023-02-28T15:34:43.495Z,16.73
2023-02-28T15:37:29.504Z,16.27
2023-02-28T15:39:56.752Z,14.25
2023-02-28T15:42:24.739Z,67.53
2023-02-28T15:44:51.285Z,150.48
2023-02-28T15:47:17.740Z,205.30
2023-02-28T15:49:54.811Z,43.75
2023-02-28T15:52:29.414Z,24.45
2023-02-28T15:54:56.058Z,15.80
2023-02-28T15:57:24.352Z,18.10
2023-02-28T16:00:01.891Z,15.25
2023-02-28T16:02:33.366Z,16.70
2023-02-28T16:04:59.903Z,15.20
2023-02-28T16:07:26.529Z,15.48
2023-02-28T16:09:55.423Z,14.15
2023-02-28T16:12:25.628Z,13.50
2023-02-28T16:14:55.189Z,16.90
2023-02-28T16:17:22.923Z,16.63
2023-02-28T16:19:49.462Z,14.65
2023-02-28T16:22:15.952Z,16.48
2023-02-28T16:24:42.571Z,16.77
2023-02-28T16:27:17.390Z,17.15
2023-02-28T16:29:43.899Z,16.23
2023-02-28T16:32:13.041Z,16.88
2023-02-28T16:34:39.561Z,16.80
2023-02-28T16:37:11.039Z,13.68
2023-02-28T16:39:37.558Z,17.98
2023-02-28T16:42:04.858Z,14.68
2023-02-28T16:44:33.861Z,16.63
2023-02-28T16:47:04.254Z,17.00
2023-02-28T16:49:30.830Z,16.05
2023-02-28T16:51:57.301Z,23.48
2023-02-28T16:54:23.762Z,38.65
2023-02-28T16:56:50.630Z,18.27
2023-02-28T16:59:20.525Z,19.08
2023-02-28T17:01:47.077Z,21.70
2023-02-28T17:04:16.700Z,21.63
2023-02-28T17:06:43.196Z,22.08
2023-02-28T17:09:16.423Z,20.60
2023-02-28T17:11:42.916Z,19.98
2023-02-28T17:14:09.438Z,18.83
2023-02-28T17:16:37.507Z,20.73
2023-02-28T17:19:05.418Z,23.10
2023-02-28T17:21:35.297Z,45.92
2023-02-28T17:24:01.733Z,27.27
2023-02-28T17:26:29.150Z,21.25
2023-02-28T17:28:56.869Z,22.17
2023-02-28T17:31:29.029Z,23.00
2023-02-28T17:33:56.204Z,27.38
2023-02-28T17:36:24.064Z,25.30
2023-02-28T17:38:50.775Z,22.67
2023-02-28T17:41:19.712Z,25.85
2023-02-28T17:43:46.165Z,20.50
2023-02-28T17:46:21.364Z,20.67
2023-02-28T17:48:51.891Z,24.02
2023-02-28T17:51:19.221Z,22.85
2023-02-28T17:53:49.085Z,25.67
2023-02-28T17:56:20.731Z,20.13
2023-02-28T17:58:47.258Z,22.23
2023-02-28T18:01:16.211Z,25.67
2023-02-28T18:03:42.998Z,22.88
2023-02-28T18:06:17.450Z,20.88
2023-02-28T18:08:44.050Z,23.10
2023-02-28T18:11:18.185Z,23.80
2023-02-28T18:13:49.352Z,21.85
2023-02-28T18:16:16.615Z,21.13
2023-02-28T18:18:45.896Z,20.50
2023-02-28T18:21:13.591Z,22.65
2023-02-28T18:23:47.969Z,26.48
2023-02-28T18:26:15.474Z,26.40
2023-02-28T18:28:42.711Z,28.35
2023-02-28T18:31:09.622Z,24.95
2023-02-28T18:33:36.125Z,26.42
2023-02-28T18:36:05.322Z,27.48
2023-02-28T18:38:31.883Z,27.52
2023-02-28T18:40:59.409Z,24.63
2023-02-28T18:43:26.624Z,23.73
2023-02-28T18:45:53.547Z,34.53
2023-02-28T18:48:20.130Z,34.17
2023-02-28T18:50:47.194Z,22.90
2023-02-28T18:53:13.859Z,31.75
2023-02-28T18:55:40.371Z,35.28
2023-02-28T18:58:07.052Z,37.40
2023-02-28T19:00:36.914Z,38.63
2023-02-28T19:03:05.414Z,33.17
2023-02-28T19:05:34.541Z,34.47
2023-02-28T19:08:01.982Z,46.10
2023-02-28T19:10:28.513Z,32.10
2023-02-28T19:12:55.701Z,27.92
2023-02-28T19:15:22.555Z,56.92
2023-02-28T19:17:49.087Z,73.00
2023-02-28T19:20:18.069Z,56.72
2023-02-28T19:22:44.568Z,27.35
2023-02-28T19:25:13.604Z,24.88
2023-02-28T19:27:40.075Z,31.85
2023-02-28T19:30:07.499Z,33.17
2023-02-28T19:32:34.188Z,31.55
2023-02-28T19:35:02.616Z,25.63
2023-02-28T19:37:31.245Z,24.67
2023-02-28T19:39:58.777Z,38.03
2023-02-28T19:42:33.074Z,22.95
2023-02-28T19:45:02.171Z,27.15
2023-02-28T19:47:30.672Z,22.25
2023-02-28T19:49:57.567Z,22.40
2023-02-28T19:52:25.110Z,27.70
2023-02-28T19:54:51.829Z,25.63
2023-02-28T19:57:18.542Z,33.55
2023-02-28T19:59:45.145Z,26.25
2023-02-28T20:02:15.757Z,25.10
2023-02-28T20:04:42.742Z,25.55
2023-02-28T20:07:09.358Z,25.35
2023-02-28T20:09:37.935Z,24.60
2023-02-28T20:12:07.164Z,24.88
2023-02-28T20:14:35.944Z,23.85
2023-02-28T20:17:02.554Z,21.85
2023-02-28T20:19:29.173Z,24.33
2023-02-28T20:21:55.754Z,22.00
2023-02-28T20:24:25.985Z,26.13
2023-02-28T20:26:57.525Z,23.83
2023-02-28T20:29:24.313Z,25.38
2023-02-28T20:31:50.821Z,25.98
2023-02-28T20:34:17.961Z,22.27
2023-02-28T20:36:44.497Z,23.45
2023-02-28T20:39:11.060Z,22.90
2023-02-28T20:41:39.644Z,29.85
2023-02-28T20:44:06.617Z,24.38
2023-02-28T20:46:34.694Z,24.58
2023-02-28T20:49:03.751Z,22.88
2023-02-28T20:51:30.237Z,23.92
2023-02-28T20:53:56.835Z,22.90
2023-02-28T20:56:27.172Z,25.15
2023-02-28T20:58:55.935Z,28.52
2023-02-28T21:01:26.273Z,23.10
2023-02-28T21:04:01.202Z,22.92
2023-02-28T21:06:31.585Z,24.73
2023-02-28T21:08:58.513Z,25.08
2023-02-28T21:11:31.213Z,24.20
2023-02-28T21:14:02.171Z,22.83
2023-02-28T21:16:29.784Z,24.05
2023-02-28T21:18:56.533Z,24.42
2023-02-28T21:21:24.434Z,24.08
2023-02-28T21:23:54.313Z,22.33
2023-02-28T21:26:24.262Z,25.73
2023-02-28T21:28:51.732Z,39.90
2023-02-28T21:31:19.692Z,25.42
2023-02-28T21:33:46.622Z,27.25
2023-02-28T21:36:13.300Z,27.35
2023-02-28T21:38:40.318Z,23.73
2023-02-28T21:41:07.631Z,26.75
2023-02-28T21:43:34.212Z,24.85
2023-02-28T21:46:04.189Z,24.70
2023-02-28T21:48:30.742Z,23.55
2023-02-28T21:50:58.284Z,23.38
2023-02-28T21:53:25.101Z,31.70
2023-02-28T21:55:51.585Z,29.02
2023-02-28T21:58:18.188Z,26.00
2023-02-28T22:00:46.071Z,25.63
2023-02-28T22:03:15.642Z,25.58
2023-02-28T22:05:42.469Z,26.20
2023-02-28T22:08:08.903Z,30.05
2023-02-28T22:10:35.781Z,30.17
2023-02-28T22:13:03.664Z,26.13
2023-02-28T22:15:35.478Z,24.92
2023-02-28T22:18:01.959Z,25.85
2023-02-28T22:20:28.467Z,25.52
2023-02-28T22:22:55.101Z,25.00
2023-02-28T22:25:21.595Z,24.98
2023-02-28T22:27:48.082Z,22.67
2023-02-28T22:30:14.902Z,26.38
2023-02-28T22:32:41.366Z,22.52
2023-02-28T22:35:08.090Z,25.00
2023-02-28T22:37:34.846Z,27.15
2023-02-28T22:40:01.320Z,28.25
2023-02-28T22:42:27.803Z,23.85
2023-02-28T22:44:54.318Z,23.88
2023-02-28T22:47:22.200Z,27.85
2023-02-28T22:49:51.184Z,24.38
2023-02-28T22:52:17.829Z,29.27
2023-02-28T22:54:44.286Z,22.98
2023-02-28T22:57:11.861Z,24.38
2023-02-28T22:59:40.652Z,22.45
2023-02-28T23:02:07.145Z,26.52
2023-02-28T23:04:33.688Z,23.77
2023-02-28T23:07:00.151Z,25.45
2023-02-28T23:09:26.667Z,22.38
2023-02-28T23:11:55.208Z,26.77
2023-02-28T23:14:24.007Z,24.77
2023-02-28T23:16:52.411Z,24.25
2023-02-28T23:19:26.654Z,23.63
2023-02-28T23:21:53.568Z,21.17
2023-02-28T23:24:21.976Z,22.45
2023-02-28T23:26:50.007Z,25.85
2023-02-28T23:29:17.714Z,25.55
2023-02-28T23:31:44.441Z,21.35
2023-02-28T23:34:11.313Z,23.25
2023-02-28T23:36:38.119Z,23.63
2023-02-28T23:39:04.706Z,24.75
2023-02-28T23:41:31.761Z,27.60
2023-02-28T23:43:58.239Z,23.25
2023-02-28T23:46:27.165Z,25.77
2023-02-28T23:48:53.628Z,24.50
2023-02-28T23:51:21.126Z,26.70
2023-02-28T23:53:48.963Z,24.90
2023-02-28T23:56:16.677Z,25.45
2023-02-28T23:58:43.809Z,24.85
